Time;durP1;ratioP1;P1;durP2;ratioP2;P2;SDS_P1;SDS_P2;PMS_P1;PMS_P2;Temp;Humidity;BMP_temperature;BMP_pressure;BME280_temperature;BME280_humidity;BME280_pressure;Samples;Min_cycle;Max_cycle;Signal;HPM_P1;HPM_P2
2022/07/06 00:02:45;;;;;;;;;;;;;;;20.13;70.45;100255.38;5323030;32;34474;-73
2022/07/06 00:05:47;;;;;;;;;;;;;;;20.28;70.09;100251.47;5347862;32;34073;-76
2022/07/06 00:08:48;;;;;;;;;;;;;;;20.17;69.49;100247.03;5341671;32;37322;-73
2022/07/06 00:11:50;;;;;;;;;;;;;;;20.78;67.71;100243.78;5346369;32;34776;-75
2022/07/06 00:14:52;;;;;;;;;;;;;;;20.36;68.97;100234.84;5330764;32;35058;-72
2022/07/06 00:17:54;;;;;;;;;;;;;;;20.08;70.53;100239.75;5338573;32;35259;-72
2022/07/06 00:20:56;;;;;;;;;;;;;;;19.58;71.96;100250.00;5346013;32;35789;-72
2022/07/06 00:23:58;;;;;;;;;;;;;;;19.21;74.54;100243.97;5331751;32;35025;-73
2022/07/06 00:27:00;;;;;;;;;;;;;;;19.92;72.18;100236.63;5347253;32;34344;-71
2022/07/06 00:30:02;;;;;;;;;;;;;;;20.49;68.33;100239.06;5330036;32;35151;-75
2022/07/06 00:33:04;;;;;;;;;;;;;;;20.40;68.29;100238.94;5346379;32;34789;-75
2022/07/06 00:36:06;;;;;;;;;;;;;;;20.63;68.00;100242.41;5333153;32;34240;-71
2022/07/06 00:39:08;;;;;;;;;;;;;;;19.95;70.13;100250.56;5331683;32;34017;-75
2022/07/06 00:42:09;;;;;;;;;;;;;;;20.61;68.20;100249.69;5348128;32;34455;-75
2022/07/06 00:45:12;;;;;;;;;;;;;;;20.62;67.88;100265.59;5340692;32;34521;-72
2022/07/06 00:48:14;;;;;;;;;;;;;;;20.00;70.49;100260.87;5357305;32;35718;-73
2022/07/06 00:51:16;;;;;;;;;;;;;;;19.85;70.99;100254.09;5331412;32;35435;-74
2022/07/06 00:54:18;;;;;;;;;;;;;;;20.26;69.64;100253.41;5343627;32;34858;-72
2022/07/06 00:57:20;;;;;;;;;;;;;;;19.91;70.44;100248.28;5344311;32;45533;-75
2022/07/06 01:00:23;;;;;;;;;;;;;;;20.58;68.00;100241.94;5332190;32;34574;-74
2022/07/06 01:03:24;;;;;;;;;;;;;;;20.87;65.55;100232.34;5346157;32;36850;-71
2022/07/06 01:06:27;;;;;;;;;;;;;;;20.30;68.63;100233.53;5335034;32;34726;-72
2022/07/06 01:09:29;;;;;;;;;;;;;;;20.09;69.25;100227.25;5355601;32;34783;-73
2022/07/06 01:12:31;;;;;;;;;;;;;;;20.32;68.72;100218.22;5332543;32;34970;-71
2022/07/06 01:15:33;;;;;;;;;;;;;;;20.37;68.57;100225.88;5351431;32;34746;-72
2022/07/06 01:18:35;;;;;;;;;;;;;;;20.18;69.36;100230.03;5330875;32;35385;-72
2022/07/06 01:21:40;;;;;;;;;;;;;;;20.36;68.13;100238.34;5340500;32;34655;-73
2022/07/06 01:24:41;;;;;;;;;;;;;;;20.06;69.42;100239.03;5355336;32;34111;-77
2022/07/06 01:27:45;;;;;;;;;;;;;;;20.49;68.23;100231.06;5342401;32;34280;-75
2022/07/06 01:30:48;;;;;;;;;;;;;;;20.34;67.99;100236.78;5345657;32;36651;-74
2022/07/06 01:33:54;;;;;;;;;;;;;;;20.55;67.79;100240.41;5330983;32;45701;-71
2022/07/06 01:36:56;;;;;;;;;;;;;;;20.19;68.38;100244.22;5339407;32;35005;-74
2022/07/06 01:39:59;;;;;;;;;;;;;;;20.07;68.88;100238.06;5347374;32;34774;-72
2022/07/06 01:43:01;;;;;;;;;;;;;;;20.01;70.12;100238.56;5341772;32;35839;-73
2022/07/06 01:46:03;;;;;;;;;;;;;;;20.58;66.81;100232.12;5346518;32;34621;-73
2022/07/06 01:49:05;;;;;;;;;;;;;;;20.44;67.69;100238.56;5330179;32;34653;-75
2022/07/06 01:52:07;;;;;;;;;;;;;;;20.69;66.13;100244.59;5347196;32;35206;-73
2022/07/06 01:55:09;;;;;;;;;;;;;;;19.67;69.51;100251.06;5331795;32;34509;-72
2022/07/06 01:58:11;;;;;;;;;;;;;;;19.78;69.02;100248.41;5346635;32;34172;-71
2022/07/06 02:01:13;;;;;;;;;;;;;;;20.16;68.12;100242.66;5322341;32;34980;-72
2022/07/06 02:04:15;;;;;;;;;;;;;;;20.59;66.42;100240.97;5327332;32;34259;-72
2022/07/06 02:07:17;;;;;;;;;;;;;;;20.67;66.16;100230.50;5346839;32;37483;-77
2022/07/06 02:10:19;;;;;;;;;;;;;;;19.52;70.33;100231.78;5330366;32;45430;-76
2022/07/06 02:13:21;;;;;;;;;;;;;;;20.14;68.33;100236.59;5356187;32;35009;-76
2022/07/06 02:16:23;;;;;;;;;;;;;;;20.08;68.16;100233.56;5328353;32;35373;-77
2022/07/06 02:19:25;;;;;;;;;;;;;;;19.62;69.66;100253.25;5330545;32;34761;-72
2022/07/06 02:22:27;;;;;;;;;;;;;;;20.25;67.37;100262.41;5351003;32;35192;-70
2022/07/06 02:25:29;;;;;;;;;;;;;;;20.04;67.30;100262.31;5330386;32;35526;-74
2022/07/06 02:28:31;;;;;;;;;;;;;;;19.91;68.14;100257.13;5344936;32;35086;-74
2022/07/06 02:31:33;;;;;;;;;;;;;;;20.54;66.03;100266.25;5327596;32;34172;-75
2022/07/06 02:34:35;;;;;;;;;;;;;;;20.02;67.85;100267.75;5344804;32;34643;-70
2022/07/06 02:37:36;;;;;;;;;;;;;;;19.97;68.71;100277.13;5339971;32;35281;-75
2022/07/06 02:40:38;;;;;;;;;;;;;;;19.96;68.11;100267.41;5335914;32;34911;-71
2022/07/06 02:43:40;;;;;;;;;;;;;;;19.91;67.80;100269.62;5340290;32;34706;-76
2022/07/06 02:46:42;;;;;;;;;;;;;;;19.99;67.18;100273.34;5333807;32;34929;-75
2022/07/06 02:49:44;;;;;;;;;;;;;;;19.75;69.29;100269.97;5346960;32;35481;-73
2022/07/06 02:52:46;;;;;;;;;;;;;;;20.33;67.19;100270.63;5332924;32;34141;-75
2022/07/06 02:55:48;;;;;;;;;;;;;;;19.73;69.14;100277.25;5348433;32;35560;-75
2022/07/06 02:58:50;;;;;;;;;;;;;;;19.69;69.20;100281.13;5330425;32;44619;-75
2022/07/06 03:01:52;;;;;;;;;;;;;;;19.73;69.09;100287.91;5315599;32;35015;-72
2022/07/06 03:04:54;;;;;;;;;;;;;;;20.89;64.61;100291.00;5347418;32;35058;-72
2022/07/06 03:07:55;;;;;;;;;;;;;;;19.81;68.28;100298.81;5342021;32;35513;-72
2022/07/06 03:10:57;;;;;;;;;;;;;;;20.73;64.87;100299.41;5358301;32;35029;-72
2022/07/06 03:13:59;;;;;;;;;;;;;;;20.48;65.82;100298.78;5341498;32;34963;-76
2022/07/06 03:17:01;;;;;;;;;;;;;;;19.84;68.30;100306.59;5344742;32;34775;-75
2022/07/06 03:20:04;;;;;;;;;;;;;;;19.56;69.03;100307.84;5331883;32;35007;-76
2022/07/06 03:23:06;;;;;;;;;;;;;;;20.17;67.50;100303.06;5346684;32;34357;-73
2022/07/06 03:26:08;;;;;;;;;;;;;;;19.94;67.68;100302.22;5344008;32;35488;-72
2022/07/06 03:29:10;;;;;;;;;;;;;;;18.98;72.10;100301.66;5331668;32;34831;-75
2022/07/06 03:32:11;;;;;;;;;;;;;;;19.18;71.79;100308.13;5357203;32;34505;-75
2022/07/06 03:35:13;;;;;;;;;;;;;;;19.11;71.99;100317.56;5332862;32;34294;-73
2022/07/06 03:38:15;;;;;;;;;;;;;;;18.77;72.53;100304.13;5346092;32;34398;-72
2022/07/06 03:41:17;;;;;;;;;;;;;;;19.32;70.96;100318.63;5330656;32;36948;-76
2022/07/06 03:44:19;;;;;;;;;;;;;;;19.62;69.67;100309.22;5345803;32;45260;-75
2022/07/06 03:47:21;;;;;;;;;;;;;;;19.04;71.45;100308.34;5344445;32;34305;-71
2022/07/06 03:50:23;;;;;;;;;;;;;;;19.00;72.42;100317.50;5331304;32;35056;-76
2022/07/06 03:53:25;;;;;;;;;;;;;;;19.17;71.24;100312.63;5345418;32;34395;-74
2022/07/06 03:56:29;;;;;;;;;;;;;;;18.70;72.85;100324.19;5332456;32;34581;-73
2022/07/06 03:59:31;;;;;;;;;;;;;;;19.28;71.09;100310.97;5347245;32;35096;-75
2022/07/06 04:02:33;;;;;;;;;;;;;;;19.23;70.76;100308.66;5310114;32;35019;-75
2022/07/06 04:05:35;;;;;;;;;;;;;;;19.66;68.88;100319.53;5334907;32;34353;-76
2022/07/06 04:08:37;;;;;;;;;;;;;;;20.01;68.10;100322.09;5344197;32;35314;-72
2022/07/06 04:11:39;;;;;;;;;;;;;;;19.95;67.92;100317.25;5331945;32;34801;-71
2022/07/06 04:14:41;;;;;;;;;;;;;;;19.78;67.97;100320.41;5345405;32;34611;-72
2022/07/06 04:17:52;;;;;;;;;;;;;;;20.62;64.86;100315.50;5326926;32;35210;-76
2022/07/06 04:20:54;;;;;;;;;;;;;;;20.43;65.43;100305.44;5351717;32;44430;-72
2022/07/06 04:23:56;;;;;;;;;;;;;;;19.96;66.96;100305.59;5342061;32;35314;-72
2022/07/06 04:26:58;;;;;;;;;;;;;;;19.42;68.87;100316.91;5342384;32;36100;-76
2022/07/06 04:30:00;;;;;;;;;;;;;;;19.85;67.25;100310.94;5345778;32;35006;-73
2022/07/06 04:33:02;;;;;;;;;;;;;;;20.90;63.92;100311.37;5330932;32;35457;-72
2022/07/06 04:36:04;;;;;;;;;;;;;;;20.64;64.06;100298.34;5346337;32;34531;-72
2022/07/06 04:39:06;;;;;;;;;;;;;;;20.67;64.00;100303.44;5332173;32;34287;-72
2022/07/06 04:42:08;;;;;;;;;;;;;;;20.09;65.46;100308.13;5344750;32;34157;-74
2022/07/06 04:45:10;;;;;;;;;;;;;;;21.35;61.19;100309.34;5332640;32;34784;-72
2022/07/06 04:48:12;;;;;;;;;;;;;;;20.86;63.31;100316.13;5330236;32;34199;-72
2022/07/06 04:51:14;;;;;;;;;;;;;;;21.35;60.88;100320.03;5344832;32;34917;-76
2022/07/06 04:54:16;;;;;;;;;;;;;;;21.68;59.99;100318.13;5330359;32;34028;-75
2022/07/06 04:57:18;;;;;;;;;;;;;;;22.33;57.79;100323.06;5355531;32;34603;-74
2022/07/06 05:00:20;;;;;;;;;;;;;;;22.22;57.32;100323.19;5320023;32;44799;-75
2022/07/06 05:03:22;;;;;;;;;;;;;;;22.62;56.16;100325.81;5335089;32;35083;-75
2022/07/06 05:06:24;;;;;;;;;;;;;;;22.88;55.11;100322.63;5343347;32;34535;-74
2022/07/06 05:09:26;;;;;;;;;;;;;;;22.91;55.46;100315.13;5331256;32;34861;-75
2022/07/06 05:12:27;;;;;;;;;;;;;;;23.16;54.17;100316.41;5344976;32;35274;-77
2022/07/06 05:15:30;;;;;;;;;;;;;;;24.14;51.24;100315.16;5328543;32;34544;-75
2022/07/06 05:18:32;;;;;;;;;;;;;;;23.20;53.55;100315.13;5353181;32;35077;-72
2022/07/06 05:21:34;;;;;;;;;;;;;;;23.77;52.62;100304.47;5327700;32;34834;-76
2022/07/06 05:24:36;;;;;;;;;;;;;;;24.28;50.90;100329.91;5355463;32;34547;-73
2022/07/06 05:27:38;;;;;;;;;;;;;;;24.30;50.72;100331.47;5331019;32;34704;-73
2022/07/06 05:30:40;;;;;;;;;;;;;;;24.10;51.32;100332.56;5331827;32;35452;-76
2022/07/06 05:33:42;;;;;;;;;;;;;;;22.49;55.31;100345.81;5346381;32;36978;-72
2022/07/06 05:36:44;;;;;;;;;;;;;;;23.83;51.88;100327.16;5330913;32;34402;-73
2022/07/06 05:39:47;;;;;;;;;;;;;;;23.97;51.25;100335.59;5356912;32;34424;-69
2022/07/06 05:42:48;;;;;;;;;;;;;;;24.21;50.45;100336.88;5328221;32;37922;-75
2022/07/06 05:45:50;;;;;;;;;;;;;;;25.07;48.69;100343.59;5339012;32;35101;-75
2022/07/06 05:52:13;;;;;;;;;;;;;;;24.98;48.46;100349.84;5327563;32;34773;-69
2022/07/06 05:55:15;;;;;;;;;;;;;;;25.03;48.09;100350.25;5355646;32;34866;-75
2022/07/06 05:58:17;;;;;;;;;;;;;;;25.02;48.03;100353.09;5330086;32;34706;-68
2022/07/06 06:01:18;;;;;;;;;;;;;;;25.43;47.27;100362.37;5316553;32;44688;-73
2022/07/06 06:04:21;;;;;;;;;;;;;;;25.93;46.15;100375.22;5327819;32;34265;-88
2022/07/06 06:07:27;;;;;;;;;;;;;;;26.11;45.53;100384.06;5331113;32;34142;-88
2022/07/06 06:10:29;;;;;;;;;;;;;;;25.60;46.08;100374.12;5343660;32;34693;-68
2022/07/06 06:13:31;;;;;;;;;;;;;;;26.64;44.25;100374.88;5329362;32;33473;-81
2022/07/06 06:16:33;;;;;;;;;;;;;;;26.49;43.93;100383.75;5340468;32;34203;-73
2022/07/06 06:19:36;;;;;;;;;;;;;;;25.62;45.78;100377.50;5330120;32;36766;-73
2022/07/06 06:22:46;;;;;;;;;;;;;;;25.93;44.84;100377.91;5357280;32;34859;-72
2022/07/06 06:25:47;;;;;;;;;;;;;;;27.81;40.49;100373.81;5327970;32;34071;-70
2022/07/06 06:28:50;;;;;;;;;;;;;;;26.78;42.83;100373.41;5330632;32;45305;-75
2022/07/06 06:31:52;;;;;;;;;;;;;;;27.44;41.63;100367.09;5340169;32;35941;-73
2022/07/06 06:34:54;;;;;;;;;;;;;;;26.53;43.20;100372.47;5329144;32;34331;-72
2022/07/06 06:37:56;;;;;;;;;;;;;;;27.92;40.53;100370.75;5342255;32;34373;-72
2022/07/06 06:40:58;;;;;;;;;;;;;;;26.97;42.51;100375.78;5328095;32;34499;-73
2022/07/06 06:44:00;;;;;;;;;;;;;;;28.12;39.85;100362.25;5345919;32;34975;-74
2022/07/06 06:47:02;;;;;;;;;;;;;;;28.23;39.32;100372.69;5324958;32;35467;-73
2022/07/06 06:50:04;;;;;;;;;;;;;;;26.95;41.99;100376.97;5322278;32;35767;-73
2022/07/06 06:53:06;;;;;;;;;;;;;;;27.30;41.84;100381.25;5344801;32;34360;-73
2022/07/06 06:56:08;;;;;;;;;;;;;;;27.74;40.54;100389.84;5329287;32;34387;-75
2022/07/06 06:59:10;;;;;;;;;;;;;;;29.30;37.24;100384.62;5345878;32;35310;-74
2022/07/06 07:02:19;;;;;;;;;;;;;;;28.99;37.51;100385.53;5311036;32;45130;-74
2022/07/06 07:05:22;;;;;;;;;;;;;;;29.14;37.86;100389.16;5350771;32;34300;-73
2022/07/06 07:08:26;;;;;;;;;;;;;;;27.87;39.41;100393.91;5345569;32;35470;-73
2022/07/06 07:11:28;;;;;;;;;;;;;;;29.44;37.03;100381.16;5328108;32;37824;-72
2022/07/06 07:14:30;;;;;;;;;;;;;;;29.24;37.28;100385.34;5345172;32;35171;-73
2022/07/06 07:17:32;;;;;;;;;;;;;;;29.78;36.08;100390.69;5329646;32;34418;-72
2022/07/06 07:20:34;;;;;;;;;;;;;;;29.31;37.39;100389.87;5341007;32;35781;-72
2022/07/06 07:23:36;;;;;;;;;;;;;;;29.33;36.90;100386.97;5341973;32;34236;-72
2022/07/06 07:26:38;;;;;;;;;;;;;;;28.88;38.29;100394.88;5348063;32;34522;-73
2022/07/06 07:29:40;;;;;;;;;;;;;;;28.92;37.58;100390.00;5334309;32;35927;-73
2022/07/06 07:32:42;;;;;;;;;;;;;;;28.80;38.09;100392.22;5335580;32;34211;-72
2022/07/06 07:35:44;;;;;;;;;;;;;;;30.09;36.11;100398.66;5345896;32;33462;-73
2022/07/06 07:38:46;;;;;;;;;;;;;;;29.50;36.75;100402.06;5331422;32;34245;-71
2022/07/06 07:41:50;;;;;;;;;;;;;;;29.72;36.40;100403.09;5344166;32;35716;-77
2022/07/06 07:44:52;;;;;;;;;;;;;;;29.94;35.75;100404.88;5333632;32;46064;-69
2022/07/06 07:47:54;;;;;;;;;;;;;;;32.54;31.27;100401.09;5343537;32;34097;-70
2022/07/06 07:50:56;;;;;;;;;;;;;;;30.80;34.09;100404.44;5333692;32;36345;-76
2022/07/06 07:53:58;;;;;;;;;;;;;;;31.38;33.11;100400.69;5332101;32;34094;-75
2022/07/06 07:57:00;;;;;;;;;;;;;;;33.11;30.13;100394.41;5342062;32;33854;-71
2022/07/06 08:00:03;;;;;;;;;;;;;;;32.46;31.05;100395.81;5337292;32;34227;-73
2022/07/06 08:03:05;;;;;;;;;;;;;;;34.74;27.60;100393.56;5331540;32;34398;-73
2022/07/06 08:06:06;;;;;;;;;;;;;;;32.99;29.92;100399.59;5327710;32;34359;-68
2022/07/06 08:09:08;;;;;;;;;;;;;;;32.54;30.77;100399.22;5336535;32;34234;-75
2022/07/06 08:12:10;;;;;;;;;;;;;;;31.64;32.08;100405.50;5351929;32;34209;-76
2022/07/06 08:15:15;;;;;;;;;;;;;;;32.96;29.86;100393.72;5333472;32;34907;-74
2022/07/06 08:18:17;;;;;;;;;;;;;;;31.43;31.83;100394.66;5351059;32;35411;-77
2022/07/06 08:21:20;;;;;;;;;;;;;;;30.99;31.96;100414.66;5329680;32;44708;-68
2022/07/06 08:24:26;;;;;;;;;;;;;;;32.02;29.85;100405.19;5347631;32;34733;-68
2022/07/06 08:27:28;;;;;;;;;;;;;;;32.91;28.51;100407.94;5334726;32;35780;-80
2022/07/06 08:30:34;;;;;;;;;;;;;;;33.12;28.26;100399.63;5335834;32;34493;-84
2022/07/06 08:33:36;;;;;;;;;;;;;;;32.42;28.89;100416.31;5346165;32;34446;-78
2022/07/06 08:36:38;;;;;;;;;;;;;;;31.29;31.29;100409.97;5332405;32;34432;-77
2022/07/06 08:39:42;;;;;;;;;;;;;;;29.79;34.25;100427.56;5343960;32;34151;-72
2022/07/06 08:42:44;;;;;;;;;;;;;;;31.12;31.52;100424.84;5332011;32;35247;-77
2022/07/06 08:45:46;;;;;;;;;;;;;;;30.65;32.37;100421.53;5350411;32;33527;-77
2022/07/06 08:48:49;;;;;;;;;;;;;;;32.72;29.15;100420.44;5345043;32;36214;-77
2022/07/06 08:51:51;;;;;;;;;;;;;;;30.75;31.31;100434.84;5327008;32;34265;-80
2022/07/06 08:54:53;;;;;;;;;;;;;;;30.59;31.75;100416.03;5357519;32;35603;-75
2022/07/06 08:57:55;;;;;;;;;;;;;;;29.99;33.45;100426.00;5342989;32;34195;-80
2022/07/06 09:00:57;;;;;;;;;;;;;;;32.38;29.57;100412.31;5331055;32;35921;-79
2022/07/06 09:04:00;;;;;;;;;;;;;;;30.87;31.16;100425.19;5327008;32;34617;-70
2022/07/06 09:07:02;;;;;;;;;;;;;;;29.57;33.88;100427.44;5346128;32;35394;-82
2022/07/06 09:10:04;;;;;;;;;;;;;;;31.03;31.02;100415.94;5328248;32;36805;-77
2022/07/06 09:13:07;;;;;;;;;;;;;;;30.79;31.29;100427.19;5330385;32;34268;-70
2022/07/06 09:16:10;;;;;;;;;;;;;;;31.59;30.39;100424.25;5351461;32;35642;-76
2022/07/06 09:19:32;;;;;;;;;;;;;;;32.32;28.96;100414.75;5321451;32;34585;-74
2022/07/06 09:22:34;;;;;;;;;;;;;;;33.32;27.69;100415.16;5342267;32;35701;-75
2022/07/06 09:25:36;;;;;;;;;;;;;;;32.48;28.78;100412.78;5330429;32;34431;-76
2022/07/06 09:28:45;;;;;;;;;;;;;;;31.78;28.82;100411.88;5338489;32;35644;-73
2022/07/06 09:32:03;;;;;;;;;;;;;;;34.34;25.92;100402.97;5339700;32;34295;-76
2022/07/06 09:35:05;;;;;;;;;;;;;;;32.03;28.76;100404.13;5327176;32;35476;-76
2022/07/06 09:38:13;;;;;;;;;;;;;;;33.35;27.16;100404.66;5341120;32;35384;-76
2022/07/06 09:41:19;;;;;;;;;;;;;;;33.31;26.81;100408.03;5324085;32;33017;-75
2022/07/06 09:44:31;;;;;;;;;;;;;;;33.85;25.62;100394.22;5334719;32;44490;-74
2022/07/06 09:47:33;;;;;;;;;;;;;;;35.09;23.60;100403.25;5338457;32;35468;-76
2022/07/06 09:50:38;;;;;;;;;;;;;;;34.25;24.61;100413.25;5338694;32;35393;-76
2022/07/06 09:53:41;;;;;;;;;;;;;;;34.88;23.22;100407.16;5346227;32;34658;-79
2022/07/06 09:56:44;;;;;;;;;;;;;;;31.46;28.31;100407.84;5340988;32;34338;-80
2022/07/06 09:59:50;;;;;;;;;;;;;;;32.34;26.90;100418.16;5339603;32;34328;-78
2022/07/06 10:02:52;;;;;;;;;;;;;;;34.03;24.34;100415.41;5308969;32;43650;-84
2022/07/06 10:05:57;;;;;;;;;;;;;;;36.27;21.54;100398.69;5341407;32;34942;-78
2022/07/06 10:09:00;;;;;;;;;;;;;;;34.87;23.42;100414.50;5345246;32;35251;-83
2022/07/06 10:12:03;;;;;;;;;;;;;;;37.05;20.69;100406.16;5341470;32;35714;-81
2022/07/06 10:15:05;;;;;;;;;;;;;;;33.75;24.22;100398.41;5341819;32;34904;-82
2022/07/06 10:18:07;;;;;;;;;;;;;;;35.21;22.41;100398.78;5339397;32;34441;-76
2022/07/06 10:21:10;;;;;;;;;;;;;;;35.43;22.11;100400.13;5339240;32;35433;-73
2022/07/06 10:24:12;;;;;;;;;;;;;;;34.93;22.48;100405.47;5340777;32;34168;-76
2022/07/06 10:27:15;;;;;;;;;;;;;;;35.06;22.00;100390.06;5324046;32;34099;-79
2022/07/06 10:30:17;;;;;;;;;;;;;;;36.37;20.27;100397.31;5349102;32;33713;-83
2022/07/06 10:33:18;;;;;;;;;;;;;;;35.81;20.41;100394.53;5343340;32;44025;-77
2022/07/06 10:36:29;;;;;;;;;;;;;;;34.64;21.47;100406.84;5353575;32;34848;-76
2022/07/06 10:42:59;;;;;;;;;;;;;;;34.52;21.41;100399.53;5338032;32;47715;-79
2022/07/06 10:46:08;;;;;;;;;;;;;;;33.72;21.71;100402.41;5340956;32;35448;-79
2022/07/06 10:49:17;;;;;;;;;;;;;;;32.84;22.81;100407.88;5329890;32;35034;-79
2022/07/06 10:52:48;;;;;;;;;;;;;;;34.99;20.62;100415.53;5343516;32;34665;-78
2022/07/06 10:55:51;;;;;;;;;;;;;;;37.14;18.08;100393.78;5328256;32;44549;-73
2022/07/06 10:58:53;;;;;;;;;;;;;;;34.99;20.79;100401.88;5342443;32;35937;-78
2022/07/06 11:02:12;;;;;;;;;;;;;;;34.17;21.56;100417.06;5330407;32;33459;-77
2022/07/06 11:05:33;;;;;;;;;;;;;;;35.56;19.55;100407.38;5313763;32;34876;-79
2022/07/06 11:08:56;;;;;;;;;;;;;;;36.30;18.31;100398.22;5352085;32;34728;-82
2022/07/06 11:11:58;;;;;;;;;;;;;;;37.50;17.20;100393.91;5340561;32;34076;-79
2022/07/06 11:15:02;;;;;;;;;;;;;;;33.67;21.57;100405.75;5333721;32;35377;-81
2022/07/06 11:18:11;;;;;;;;;;;;;;;36.13;17.95;100385.38;5344282;32;35323;-76
2022/07/06 11:21:17;;;;;;;;;;;;;;;35.56;17.83;100390.16;5330360;32;36108;-77
2022/07/06 11:24:21;;;;;;;;;;;;;;;35.20;17.91;100392.47;5344751;32;45046;-83
2022/07/06 11:27:23;;;;;;;;;;;;;;;35.53;17.77;100386.78;5334301;32;35701;-79
2022/07/06 11:30:25;;;;;;;;;;;;;;;34.62;18.97;100389.00;5337966;32;34299;-83
2022/07/06 11:33:35;;;;;;;;;;;;;;;34.98;17.90;100394.75;5334284;32;34754;-79
2022/07/06 11:36:37;;;;;;;;;;;;;;;34.86;18.22;100401.91;5329771;32;34218;-76
2022/07/06 11:39:47;;;;;;;;;;;;;;;37.62;16.14;100392.84;5338951;32;34352;-79
2022/07/06 11:42:52;;;;;;;;;;;;;;;35.26;18.08;100390.75;5332392;32;45498;-72
2022/07/06 11:45:54;;;;;;;;;;;;;;;34.88;18.29;100385.31;5346589;32;34417;-79
2022/07/06 11:48:57;;;;;;;;;;;;;;;35.27;17.88;100382.34;5328455;32;34237;-86
2022/07/06 11:52:00;;;;;;;;;;;;;;;36.97;15.64;100390.06;5331477;32;34696;-81
2022/07/06 11:55:02;;;;;;;;;;;;;;;36.55;16.38;100392.69;5357132;32;34282;-81
2022/07/06 11:58:04;;;;;;;;;;;;;;;35.46;17.30;100401.56;5331792;32;36084;-73
2022/07/06 12:01:07;;;;;;;;;;;;;;;35.42;17.49;100400.31;5341154;32;34255;-78
2022/07/06 12:04:09;;;;;;;;;;;;;;;34.98;17.97;100397.47;5322879;32;34369;-76
2022/07/06 12:07:12;;;;;;;;;;;;;;;34.37;18.81;100411.53;5347368;32;34809;-76
2022/07/06 12:10:14;;;;;;;;;;;;;;;34.98;17.57;100404.81;5343870;32;34043;-79
2022/07/06 12:13:16;;;;;;;;;;;;;;;33.71;18.89;100402.63;5341390;32;34245;-82
2022/07/06 12:16:18;;;;;;;;;;;;;;;31.73;21.48;100409.75;5342142;32;34328;-75
2022/07/06 12:19:23;;;;;;;;;;;;;;;31.86;22.05;100400.88;5325648;32;44574;-74
2022/07/06 12:22:26;;;;;;;;;;;;;;;31.11;22.32;100404.13;5346059;32;35119;-73
2022/07/06 12:25:31;;;;;;;;;;;;;;;31.09;22.66;100392.63;5328452;32;36043;-74
2022/07/06 12:28:34;;;;;;;;;;;;;;;31.52;22.04;100398.91;5353406;32;35001;-78
2022/07/06 12:31:37;;;;;;;;;;;;;;;30.47;23.49;100412.97;5341861;32;34172;-86
2022/07/06 12:34:39;;;;;;;;;;;;;;;29.96;24.13;100407.41;5329319;32;34336;-79
2022/07/06 12:37:54;;;;;;;;;;;;;;;30.52;23.75;100410.50;5343067;32;34370;-76
2022/07/06 12:40:56;;;;;;;;;;;;;;;31.15;22.42;100400.00;5341237;32;44937;-72
2022/07/06 12:44:02;;;;;;;;;;;;;;;30.17;23.32;100415.69;5344667;32;34452;-80
2022/07/06 12:47:04;;;;;;;;;;;;;;;30.81;22.74;100400.69;5344925;32;35067;-76
2022/07/06 12:50:07;;;;;;;;;;;;;;;31.62;20.57;100412.16;5338774;32;34162;-74
2022/07/06 12:53:25;;;;;;;;;;;;;;;30.59;21.15;100406.03;5349179;32;34758;-73
2022/07/06 12:56:28;;;;;;;;;;;;;;;30.46;21.35;100405.84;5341378;32;34671;-79
2022/07/06 12:59:32;;;;;;;;;;;;;;;30.91;20.91;100383.03;5334495;32;35057;-78
2022/07/06 13:02:37;;;;;;;;;;;;;;;31.41;20.23;100389.41;5312515;32;35581;-76
2022/07/06 13:05:58;;;;;;;;;;;;;;;30.53;21.51;100400.50;5349575;32;34880;-79
2022/07/06 13:09:00;;;;;;;;;;;;;;;30.94;20.78;100390.81;5347218;32;33412;-80
2022/07/06 13:12:03;;;;;;;;;;;;;;;30.57;21.59;100402.66;5329254;32;34996;-82
2022/07/06 13:15:05;;;;;;;;;;;;;;;30.41;21.27;100400.16;5343472;32;36347;-76
2022/07/06 13:18:08;;;;;;;;;;;;;;;30.57;20.97;100397.22;5342608;32;34471;-79
2022/07/06 13:21:14;;;;;;;;;;;;;;;30.50;21.22;100395.47;5354736;32;34637;-79
2022/07/06 13:24:16;;;;;;;;;;;;;;;29.26;22.18;100407.69;5331239;32;35854;-83
2022/07/06 13:27:18;;;;;;;;;;;;;;;30.18;21.33;100390.25;5331858;32;36722;-79
2022/07/06 13:30:21;;;;;;;;;;;;;;;29.62;22.67;100400.63;5347956;32;35743;-83
2022/07/06 13:33:23;;;;;;;;;;;;;;;30.05;21.58;100402.75;5328943;32;34612;-82
2022/07/06 13:36:25;;;;;;;;;;;;;;;30.66;21.25;100406.97;5356538;32;35106;-79
2022/07/06 13:39:28;;;;;;;;;;;;;;;29.64;23.77;100409.41;5340988;32;34529;-80
2022/07/06 13:42:30;;;;;;;;;;;;;;;29.98;24.55;100402.66;5357188;32;35412;-74
2022/07/06 13:45:32;;;;;;;;;;;;;;;29.94;25.45;100406.75;5344020;32;34174;-75
2022/07/06 13:48:34;;;;;;;;;;;;;;;29.41;26.50;100406.69;5343966;32;35268;-76
2022/07/06 13:51:38;;;;;;;;;;;;;;;29.49;26.31;100397.66;5341323;32;36068;-77
2022/07/06 13:54:40;;;;;;;;;;;;;;;30.27;24.87;100395.56;5331154;32;34670;-77
2022/07/06 13:57:42;;;;;;;;;;;;;;;29.61;25.95;100407.06;5346305;32;34118;-76
2022/07/06 14:00:44;;;;;;;;;;;;;;;29.27;26.04;100406.66;5320828;32;34986;-74
2022/07/06 14:03:49;;;;;;;;;;;;;;;29.41;26.22;100405.84;5332561;32;37397;-78
2022/07/06 14:06:50;;;;;;;;;;;;;;;29.76;25.67;100409.00;5332240;32;34898;-74
2022/07/06 14:09:53;;;;;;;;;;;;;;;29.61;25.38;100404.34;5327471;32;35094;-73
2022/07/06 14:12:55;;;;;;;;;;;;;;;29.99;24.86;100408.91;5342059;32;34827;-74
2022/07/06 14:15:57;;;;;;;;;;;;;;;30.27;24.58;100407.28;5338695;32;35275;-73
2022/07/06 14:18:59;;;;;;;;;;;;;;;29.20;25.90;100408.41;5353482;32;34645;-77
2022/07/06 14:22:00;;;;;;;;;;;;;;;29.91;24.75;100405.25;5330243;32;35407;-74
2022/07/06 14:25:05;;;;;;;;;;;;;;;30.28;24.05;100416.25;5345374;32;34527;-78
2022/07/06 14:28:07;;;;;;;;;;;;;;;29.60;25.22;100408.09;5324268;32;34664;-78
2022/07/06 14:31:09;;;;;;;;;;;;;;;28.84;25.84;100408.91;5325361;32;34504;-77
2022/07/06 14:34:17;;;;;;;;;;;;;;;29.65;24.83;100416.53;5338425;32;33182;-76
2022/07/06 14:37:19;;;;;;;;;;;;;;;29.57;24.97;100405.75;5326605;32;44656;-77
2022/07/06 14:40:21;;;;;;;;;;;;;;;29.42;25.32;100399.41;5357389;32;36106;-77
2022/07/06 14:43:24;;;;;;;;;;;;;;;29.16;25.39;100407.06;5329686;32;34423;-76
2022/07/06 14:46:27;;;;;;;;;;;;;;;29.40;25.13;100406.87;5355051;32;34675;-77
2022/07/06 14:49:29;;;;;;;;;;;;;;;29.09;24.04;100406.94;5339093;32;35447;-75
2022/07/06 14:52:31;;;;;;;;;;;;;;;29.42;23.43;100394.00;5340781;32;35244;-75
2022/07/06 14:55:33;;;;;;;;;;;;;;;29.73;23.36;100409.34;5353055;32;34845;-77
2022/07/06 14:58:35;;;;;;;;;;;;;;;29.13;23.96;100408.28;5342401;32;34447;-76
2022/07/06 15:01:39;;;;;;;;;;;;;;;28.50;24.68;100407.41;5326931;32;34487;-76
2022/07/06 15:04:41;;;;;;;;;;;;;;;29.50;23.44;100390.38;5337482;32;34223;-75
2022/07/06 15:07:43;;;;;;;;;;;;;;;29.02;23.52;100398.69;5338398;32;34701;-79
2022/07/06 15:10:51;;;;;;;;;;;;;;;29.17;23.27;100411.44;5341011;32;44495;-77
2022/07/06 15:13:53;;;;;;;;;;;;;;;28.62;23.50;100415.97;5331332;32;35008;-76
2022/07/06 15:16:55;;;;;;;;;;;;;;;28.90;23.43;100410.09;5346524;32;34871;-75
2022/07/06 15:19:58;;;;;;;;;;;;;;;28.58;23.08;100404.66;5329046;32;34410;-79
2022/07/06 15:23:00;;;;;;;;;;;;;;;28.82;22.92;100417.22;5348132;32;35497;-76
2022/07/06 15:26:02;;;;;;;;;;;;;;;29.12;22.46;100401.19;5331442;32;35279;-76
2022/07/06 15:29:04;;;;;;;;;;;;;;;28.04;23.75;100423.41;5349810;32;35001;-77
2022/07/06 15:32:06;;;;;;;;;;;;;;;28.63;22.87;100416.81;5351273;32;34932;-77
2022/07/06 15:35:09;;;;;;;;;;;;;;;28.45;23.22;100420.59;5332059;32;35182;-76
2022/07/06 15:38:11;;;;;;;;;;;;;;;28.32;23.82;100412.22;5348540;32;35133;-77
2022/07/06 15:41:12;;;;;;;;;;;;;;;28.53;23.66;100417.88;5331179;32;34960;-75
2022/07/06 15:44:14;;;;;;;;;;;;;;;28.61;22.96;100435.94;5349425;32;34629;-76
2022/07/06 15:47:19;;;;;;;;;;;;;;;28.22;23.33;100414.25;5329668;32;37592;-77